createdAt,value
2022-09-25T00:00:58.091Z,16.20
2022-09-25T00:03:28.393Z,16.20
2022-09-25T00:06:04.129Z,16.20
2022-09-25T00:08:31.868Z,16.10
2022-09-25T00:10:59.670Z,16.20
2022-09-25T00:13:27.590Z,16.20
2022-09-25T00:15:56.436Z,16.10
2022-09-25T00:18:42.917Z,16.20
2022-09-25T00:21:15.255Z,16.20
2022-09-25T00:23:44.947Z,16.20
2022-09-25T00:26:13.567Z,16.20
2022-09-25T00:28:42.278Z,16.20
2022-09-25T00:31:10.831Z,16.20
2022-09-25T00:33:38.496Z,16.20
2022-09-25T00:36:07.413Z,16.20
2022-09-25T00:38:36.042Z,16.20
2022-09-25T00:41:04.842Z,16.20
2022-09-25T00:43:50.877Z,16.20
2022-09-25T00:46:18.533Z,16.20
2022-09-25T00:48:51.740Z,16.10
2022-09-25T00:51:21.439Z,16.10
2022-09-25T00:53:49.249Z,16.10
2022-09-25T00:56:16.740Z,16.10
2022-09-25T00:58:44.252Z,16.00
2022-09-25T01:01:11.943Z,16.10
2022-09-25T01:03:41.782Z,16.10
2022-09-25T01:06:10.558Z,16.00
2022-09-25T01:08:38.121Z,16.00
2022-09-25T01:11:05.693Z,16.10
2022-09-25T01:13:33.783Z,16.10
2022-09-25T01:16:15.063Z,16.10
2022-09-25T01:18:57.909Z,16.10
2022-09-25T01:21:34.598Z,16.20
2022-09-25T01:24:14.553Z,16.20
2022-09-25T01:27:00.931Z,16.20
2022-09-25T01:29:31.821Z,16.20
2022-09-25T01:32:06.026Z,16.20
2022-09-25T01:34:51.694Z,16.10
2022-09-25T01:37:19.264Z,16.10
2022-09-25T01:39:49.333Z,16.20
2022-09-25T01:42:27.311Z,16.20
2022-09-25T01:45:02.554Z,16.10
2022-09-25T01:47:31.387Z,16.10
2022-09-25T01:50:00.436Z,16.30
2022-09-25T01:52:35.611Z,16.30
2022-09-25T01:55:36.416Z,16.20
2022-09-25T01:58:03.935Z,16.10
2022-09-25T02:00:32.485Z,16.10
2022-09-25T02:03:06.506Z,16.10
2022-09-25T02:05:38.689Z,16.10
2022-09-25T02:08:08.958Z,16.10
2022-09-25T02:10:38.492Z,16.20
2022-09-25T02:13:09.105Z,16.30
2022-09-25T02:15:40.452Z,16.30
2022-09-25T02:18:32.192Z,16.50
2022-09-25T02:21:04.252Z,16.50
2022-09-25T02:23:51.164Z,16.50
2022-09-25T02:26:25.180Z,16.40
2022-09-25T02:28:54.054Z,16.50
2022-09-25T02:31:23.278Z,16.40
2022-09-25T02:33:51.045Z,16.50
2022-09-25T02:36:20.073Z,16.50
2022-09-25T02:38:48.899Z,16.50
2022-09-25T02:41:30.886Z,16.30
2022-09-25T02:44:08.096Z,16.10
2022-09-25T02:46:35.922Z,15.90
2022-09-25T02:49:03.294Z,15.90
2022-09-25T02:51:40.289Z,16.10
2022-09-25T02:54:13.106Z,16.20
2022-09-25T02:56:43.675Z,16.30
2022-09-25T02:59:16.904Z,16.20
2022-09-25T03:01:47.116Z,16.30
2022-09-25T03:04:16.771Z,16.20
2022-09-25T03:06:44.573Z,16.10
2022-09-25T03:09:13.839Z,16.00
2022-09-25T03:11:42.392Z,16.00
2022-09-25T03:14:10.404Z,16.20
2022-09-25T03:16:52.090Z,16.30
2022-09-25T03:19:22.429Z,16.20
2022-09-25T03:21:51.328Z,16.20
2022-09-25T03:24:18.810Z,16.40
2022-09-25T03:26:46.617Z,16.40
2022-09-25T03:29:14.976Z,16.40
2022-09-25T03:31:42.828Z,16.20
2022-09-25T03:34:12.052Z,16.00
2022-09-25T03:36:39.760Z,16.00
2022-09-25T03:39:07.466Z,16.00
2022-09-25T03:41:35.525Z,15.90
2022-09-25T03:44:03.492Z,15.90
2022-09-25T03:46:32.004Z,16.00
2022-09-25T03:49:00.045Z,16.00
2022-09-25T03:51:28.527Z,16.00
2022-09-25T03:53:56.394Z,15.90
2022-09-25T03:56:27.140Z,16.00
2022-09-25T03:58:55.166Z,15.90
2022-09-25T04:01:23.822Z,16.00
2022-09-25T04:03:51.637Z,16.10
2022-09-25T04:06:20.966Z,16.00
2022-09-25T04:08:48.946Z,15.90
2022-09-25T04:11:17.497Z,15.90
2022-09-25T04:13:45.483Z,15.90
2022-09-25T04:16:14.371Z,16.00
2022-09-25T04:18:43.202Z,16.10
2022-09-25T04:21:11.823Z,16.20
2022-09-25T04:23:39.519Z,16.20
2022-09-25T04:26:07.793Z,16.20
2022-09-25T04:28:35.800Z,16.10
2022-09-25T04:31:04.159Z,16.00
2022-09-25T04:33:48.299Z,15.90
2022-09-25T04:36:17.082Z,16.00
2022-09-25T04:38:44.668Z,16.10
2022-09-25T04:41:12.343Z,16.20
2022-09-25T04:43:42.997Z,16.20
2022-09-25T04:46:15.447Z,16.10
2022-09-25T04:48:46.689Z,16.10
2022-09-25T04:51:14.275Z,16.10
2022-09-25T04:53:41.891Z,16.20
2022-09-25T04:56:15.555Z,16.00
2022-09-25T04:58:44.964Z,15.80
2022-09-25T05:01:12.465Z,15.70
2022-09-25T05:03:40.015Z,15.60
2022-09-25T05:06:07.567Z,15.80
2022-09-25T05:08:35.054Z,15.90
2022-09-25T05:11:03.310Z,15.90
2022-09-25T05:13:30.876Z,15.80
2022-09-25T05:15:58.460Z,15.70
2022-09-25T05:18:25.999Z,15.70
2022-09-25T05:20:54.457Z,15.70
2022-09-25T05:23:22.561Z,15.70
2022-09-25T05:25:58.348Z,15.60
2022-09-25T05:28:26.045Z,15.60
2022-09-25T05:30:53.744Z,15.80
2022-09-25T05:33:21.541Z,15.80
2022-09-25T05:35:49.012Z,15.70
2022-09-25T05:38:16.571Z,15.70
2022-09-25T05:40:44.231Z,15.70
2022-09-25T05:43:12.730Z,15.90
2022-09-25T05:45:40.383Z,16.00
2022-09-25T05:48:08.573Z,15.90
2022-09-25T05:50:36.306Z,15.90
2022-09-25T05:53:04.954Z,15.90
2022-09-25T05:55:32.704Z,15.90
2022-09-25T05:58:04.014Z,15.90
2022-09-25T06:00:35.074Z,15.90
2022-09-25T06:03:02.693Z,16.00
2022-09-25T06:05:30.505Z,16.00
2022-09-25T06:07:57.998Z,16.00
2022-09-25T06:10:28.638Z,16.10
2022-09-25T06:12:59.004Z,16.20
2022-09-25T06:15:30.295Z,16.30
2022-09-25T06:17:57.769Z,16.50
2022-09-25T06:20:25.397Z,16.40
2022-09-25T06:22:53.884Z,16.40
2022-09-25T06:25:24.010Z,16.50
2022-09-25T06:27:55.231Z,16.40
2022-09-25T06:30:23.453Z,16.40
2022-09-25T06:32:57.368Z,16.60
2022-09-25T06:35:24.852Z,16.50
2022-09-25T06:37:52.856Z,16.60
2022-09-25T06:40:20.825Z,16.60
2022-09-25T06:42:51.168Z,16.70
2022-09-25T06:45:18.665Z,16.80
2022-09-25T06:47:46.179Z,16.80
2022-09-25T06:50:15.233Z,16.60
2022-09-25T06:52:43.813Z,16.60
2022-09-25T06:55:11.718Z,16.70
2022-09-25T06:57:39.158Z,16.80
2022-09-25T07:00:07.112Z,16.80
2022-09-25T07:02:53.073Z,16.90
2022-09-25T07:05:20.644Z,17.00
2022-09-25T07:07:48.814Z,17.00
2022-09-25T07:10:16.426Z,17.00
2022-09-25T07:12:43.872Z,17.00
2022-09-25T07:15:12.048Z,17.10
2022-09-25T07:17:43.343Z,17.00
2022-09-25T07:20:15.270Z,17.00
2022-09-25T07:22:43.071Z,16.90
2022-09-25T07:25:10.880Z,16.90
2022-09-25T07:27:38.447Z,17.00
2022-09-25T07:30:06.422Z,17.10
2022-09-25T07:32:34.007Z,17.20
2022-09-25T07:35:02.614Z,17.20
2022-09-25T07:37:31.815Z,17.20
2022-09-25T07:39:59.249Z,17.20
2022-09-25T07:42:26.801Z,17.20
2022-09-25T07:44:54.595Z,17.10
2022-09-25T07:47:22.383Z,17.10
2022-09-25T07:49:49.756Z,17.20
2022-09-25T07:52:17.752Z,17.50
2022-09-25T07:54:45.684Z,17.60
2022-09-25T07:57:13.476Z,17.70
2022-09-25T07:59:41.366Z,17.90
2022-09-25T08:02:09.321Z,17.80
2022-09-25T08:04:36.854Z,17.80
2022-09-25T08:07:04.926Z,18.00
2022-09-25T08:09:32.363Z,18.10
2022-09-25T08:11:59.916Z,18.00
2022-09-25T08:14:27.370Z,18.00
2022-09-25T08:16:56.127Z,18.00
2022-09-25T08:19:24.359Z,18.00
2022-09-25T08:21:52.824Z,18.10
2022-09-25T08:24:20.947Z,18.10
2022-09-25T08:26:48.889Z,18.30
2022-09-25T08:29:16.639Z,18.30
2022-09-25T08:31:44.142Z,18.50
2022-09-25T08:34:38.951Z,18.40
2022-09-25T08:36:59.306Z,18.40
2022-09-25T08:39:26.883Z,18.50
2022-09-25T08:41:55.430Z,18.40
2022-09-25T08:44:33.302Z,18.50
2022-09-25T08:47:31.664Z,18.50
2022-09-25T08:50:05.348Z,18.80
2022-09-25T08:52:33.020Z,19.00
2022-09-25T08:55:00.415Z,18.90
2022-09-25T08:57:35.256Z,18.80
2022-09-25T09:00:05.698Z,18.90
2022-09-25T09:02:38.779Z,18.90
2022-09-25T09:05:08.160Z,18.90
2022-09-25T09:07:38.308Z,18.80
2022-09-25T09:10:22.700Z,18.90
2022-09-25T09:12:53.239Z,18.70
2022-09-25T09:15:27.051Z,18.60
2022-09-25T09:17:55.279Z,18.80
2022-09-25T09:20:45.966Z,18.90
2022-09-25T09:23:16.198Z,19.10
2022-09-25T09:26:17.105Z,19.10
2022-09-25T09:28:48.628Z,19.30
2022-09-25T09:31:18.943Z,19.50
2022-09-25T09:34:01.670Z,19.60
2022-09-25T09:36:38.299Z,19.50
2022-09-25T09:39:27.852Z,19.70
2022-09-25T09:42:01.925Z,19.90
2022-09-25T09:44:43.176Z,19.80
2022-09-25T09:47:22.833Z,19.60
2022-09-25T09:49:52.579Z,19.80
2022-09-25T09:52:25.854Z,19.80
2022-09-25T09:54:56.185Z,19.80
2022-09-25T09:57:26.093Z,19.90
2022-09-25T10:00:00.631Z,19.60
2022-09-25T10:02:44.606Z,19.60
2022-09-25T10:05:30.830Z,19.60
2022-09-25T10:07:58.651Z,19.50
2022-09-25T10:10:39.648Z,19.40
2022-09-25T10:13:13.520Z,19.60
2022-09-25T10:15:46.512Z,19.80
2022-09-25T10:18:15.142Z,19.80
2022-09-25T10:20:44.610Z,19.90
2022-09-25T10:23:22.195Z,20.00
2022-09-25T10:25:55.201Z,19.90
2022-09-25T10:28:32.525Z,19.90
2022-09-25T10:31:02.054Z,20.10
2022-09-25T10:33:30.709Z,20.30
2022-09-25T10:35:58.868Z,20.40
2022-09-25T10:38:48.464Z,20.50
2022-09-25T10:41:18.232Z,20.40
2022-09-25T10:43:53.929Z,20.70
2022-09-25T10:46:50.292Z,20.80
2022-09-25T10:49:38.717Z,20.50
2022-09-25T10:52:07.753Z,20.30
2022-09-25T10:54:40.336Z,20.30
2022-09-25T10:57:22.681Z,20.40
2022-09-25T10:59:51.697Z,20.50
2022-09-25T11:02:31.873Z,20.60
2022-09-25T11:04:59.754Z,20.50
2022-09-25T11:07:28.085Z,20.60
2022-09-25T11:09:59.992Z,20.60
2022-09-25T11:12:30.106Z,20.80
2022-09-25T11:15:02.534Z,21.00
2022-09-25T11:17:38.086Z,21.30
2022-09-25T11:20:20.046Z,21.40
2022-09-25T11:22:55.424Z,21.50
2022-09-25T11:25:41.719Z,21.80
2022-09-25T11:28:21.440Z,22.20
2022-09-25T11:30:56.281Z,22.10
2022-09-25T11:33:27.764Z,21.80
2022-09-25T11:36:01.265Z,21.60
2022-09-25T11:39:02.383Z,21.70
2022-09-25T11:41:29.861Z,21.60
2022-09-25T11:44:01.253Z,21.50
2022-09-25T11:46:50.537Z,21.30
2022-09-25T11:49:24.523Z,21.20
2022-09-25T11:51:58.347Z,21.00
2022-09-25T11:54:36.769Z,21.00
2022-09-25T11:57:11.707Z,21.00
2022-09-25T11:59:39.222Z,21.00
2022-09-25T12:02:20.015Z,21.00
2022-09-25T12:05:00.314Z,21.10
2022-09-25T12:07:28.126Z,21.10
2022-09-25T12:10:14.138Z,21.20
2022-09-25T12:13:17.460Z,20.90
2022-09-25T12:15:54.175Z,20.90
2022-09-25T12:18:31.893Z,20.90
2022-09-25T12:21:06.931Z,20.90
2022-09-25T12:23:39.242Z,21.00
2022-09-25T12:26:17.379Z,21.10
2022-09-25T12:29:00.911Z,21.10
2022-09-25T12:31:47.191Z,21.20
2022-09-25T12:34:41.269Z,21.00
2022-09-25T12:37:08.804Z,20.80
2022-09-25T12:39:40.783Z,20.90
2022-09-25T12:42:08.836Z,21.10
2022-09-25T12:44:44.223Z,21.40
2022-09-25T12:47:14.960Z,21.50
2022-09-25T12:49:51.971Z,21.40
2022-09-25T12:52:25.412Z,21.60
2022-09-25T12:55:06.779Z,21.50
2022-09-25T12:57:46.131Z,21.70
2022-09-25T13:00:19.409Z,22.00
2022-09-25T13:02:53.205Z,21.60
2022-09-25T13:05:22.101Z,21.70
2022-09-25T13:07:52.987Z,21.50
2022-09-25T13:10:25.178Z,21.20
2022-09-25T13:12:55.752Z,21.20
2022-09-25T13:15:26.139Z,21.40
2022-09-25T13:17:53.678Z,21.40
2022-09-25T13:20:27.410Z,21.30
2022-09-25T13:22:59.690Z,21.30
2022-09-25T13:25:27.580Z,21.30
2022-09-25T13:27:57.461Z,21.30
2022-09-25T13:30:26.343Z,21.30
2022-09-25T13:32:55.594Z,21.40
2022-09-25T13:35:24.128Z,21.40
2022-09-25T13:37:52.928Z,21.40
2022-09-25T13:40:41.443Z,21.40
2022-09-25T13:43:22.951Z,21.40
2022-09-25T13:46:18.048Z,21.50
2022-09-25T13:48:46.173Z,21.50
2022-09-25T13:51:19.851Z,21.50
2022-09-25T13:54:00.377Z,21.50
2022-09-25T13:56:48.748Z,21.40
2022-09-25T13:59:16.333Z,21.40
2022-09-25T14:01:48.671Z,21.20
2022-09-25T14:04:16.329Z,21.10
2022-09-25T14:06:45.512Z,21.20
2022-09-25T14:09:14.832Z,21.30
2022-09-25T14:11:44.321Z,21.20
2022-09-25T14:14:17.122Z,21.30
2022-09-25T14:16:49.902Z,21.40
2022-09-25T14:19:19.343Z,21.40
2022-09-25T14:21:48.462Z,21.40
2022-09-25T14:24:20.369Z,21.50
2022-09-25T14:26:48.699Z,21.50
2022-09-25T14:29:17.762Z,21.50
2022-09-25T14:32:05.741Z,21.50
2022-09-25T14:34:53.113Z,21.30
2022-09-25T14:37:26.712Z,21.10
2022-09-25T14:40:00.604Z,21.10
2022-09-25T14:42:41.114Z,21.10
2022-09-25T14:45:27.431Z,21.30
2022-09-25T14:47:57.117Z,21.40
2022-09-25T14:50:26.748Z,21.10
2022-09-25T14:53:01.798Z,21.00
2022-09-25T14:55:33.090Z,21.10
2022-09-25T14:58:02.031Z,21.30
2022-09-25T15:00:30.125Z,21.40
2022-09-25T15:02:58.542Z,21.50
2022-09-25T15:05:25.989Z,21.40
2022-09-25T15:07:54.410Z,21.40
2022-09-25T15:10:28.760Z,21.10
2022-09-25T15:13:05.960Z,20.90
2022-09-25T15:15:34.324Z,21.10
2022-09-25T15:18:02.932Z,21.20
2022-09-25T15:20:32.827Z,21.20
2022-09-25T15:23:05.057Z,21.20
2022-09-25T15:25:39.853Z,21.10
2022-09-25T15:28:15.180Z,21.10
2022-09-25T15:30:44.023Z,21.20
2022-09-25T15:33:22.193Z,21.10
2022-09-25T15:35:59.852Z,21.10
2022-09-25T15:38:37.492Z,21.10
2022-09-25T15:41:08.991Z,21.10
2022-09-25T15:43:36.631Z,21.00
2022-09-25T15:46:04.142Z,21.10
2022-09-25T15:48:33.184Z,21.00
2022-09-25T15:51:02.046Z,21.00
2022-09-25T15:53:33.144Z,20.90
2022-09-25T15:56:06.617Z,20.80
2022-09-25T15:58:36.965Z,20.80
2022-09-25T16:01:23.007Z,20.80
2022-09-25T16:04:10.807Z,20.60
2022-09-25T16:06:40.513Z,20.60
2022-09-25T16:09:08.998Z,20.60
2022-09-25T16:11:36.633Z,20.60
2022-09-25T16:14:29.460Z,20.50
2022-09-25T16:16:57.567Z,20.50
2022-09-25T16:19:24.966Z,20.50
2022-09-25T16:21:52.886Z,20.40
2022-09-25T16:24:21.880Z,20.50
2022-09-25T16:27:15.754Z,20.50
2022-09-25T16:29:44.535Z,20.40
2022-09-25T16:32:17.072Z,20.40
2022-09-25T16:34:51.460Z,20.40
2022-09-25T16:37:21.005Z,20.40
2022-09-25T16:40:08.657Z,20.40
2022-09-25T16:42:42.209Z,20.30
2022-09-25T16:45:25.442Z,20.20
2022-09-25T16:47:53.228Z,20.20
2022-09-25T16:50:22.248Z,20.10
2022-09-25T16:52:50.067Z,20.00
2022-09-25T16:55:25.242Z,20.00
2022-09-25T16:57:53.740Z,19.90
2022-09-25T17:00:25.883Z,19.80
2022-09-25T17:02:53.852Z,19.80
2022-09-25T17:05:23.436Z,19.80
2022-09-25T17:07:52.254Z,19.70
2022-09-25T17:10:24.968Z,19.80
2022-09-25T17:12:54.043Z,19.70
2022-09-25T17:15:26.385Z,19.60
2022-09-25T17:17:55.427Z,19.60
2022-09-25T17:20:24.068Z,19.60
2022-09-25T17:22:52.291Z,19.50
2022-09-25T17:25:39.016Z,19.50
2022-09-25T17:28:07.405Z,19.50
2022-09-25T17:30:34.941Z,19.50
2022-09-25T17:33:05.576Z,19.50
2022-09-25T17:35:51.963Z,19.50
2022-09-25T17:38:20.088Z,19.40
2022-09-25T17:40:48.910Z,19.50
2022-09-25T17:43:16.714Z,19.40
2022-09-25T17:45:49.226Z,19.40
2022-09-25T17:48:24.592Z,19.40
2022-09-25T17:50:53.674Z,19.30
2022-09-25T17:53:22.598Z,19.30
2022-09-25T17:55:53.777Z,19.30
2022-09-25T17:58:23.760Z,19.20
2022-09-25T18:00:53.189Z,19.20
2022-09-25T18:03:22.547Z,19.10
2022-09-25T18:05:50.073Z,19.10
2022-09-25T18:08:18.742Z,19.00
2022-09-25T18:10:46.689Z,19.00
2022-09-25T18:13:15.306Z,19.00
2022-09-25T18:15:49.462Z,19.00
2022-09-25T18:18:17.145Z,18.90
2022-09-25T18:21:08.363Z,18.90
2022-09-25T18:23:38.924Z,18.80
2022-09-25T18:26:07.869Z,18.80
2022-09-25T18:28:36.263Z,18.80
2022-09-25T18:31:04.138Z,18.80
2022-09-25T18:33:32.945Z,18.70
2022-09-25T18:36:00.994Z,18.70
2022-09-25T18:38:30.732Z,18.70
2022-09-25T18:41:01.382Z,18.60
2022-09-25T18:43:29.964Z,18.50
2022-09-25T18:45:59.598Z,18.20
2022-09-25T18:48:29.795Z,18.10
2022-09-25T18:50:58.509Z,18.00
2022-09-25T18:53:32.470Z,18.30
2022-09-25T18:56:00.751Z,18.40
2022-09-25T18:58:31.064Z,18.50
2022-09-25T19:01:00.333Z,18.50
2022-09-25T19:03:29.559Z,18.50
2022-09-25T19:06:00.040Z,18.50
2022-09-25T19:08:30.705Z,18.60
2022-09-25T19:11:00.683Z,18.50
2022-09-25T19:13:29.482Z,18.40
2022-09-25T19:15:59.231Z,18.20
2022-09-25T19:18:29.906Z,18.10
2022-09-25T19:20:59.251Z,18.20
2022-09-25T19:23:27.412Z,18.30
2022-09-25T19:26:02.639Z,18.40
2022-09-25T19:28:32.371Z,18.40
2022-09-25T19:31:01.920Z,18.50
2022-09-25T19:33:32.931Z,18.20
2022-09-25T19:36:07.082Z,18.00
2022-09-25T19:38:40.322Z,17.90
2022-09-25T19:41:13.517Z,17.90
2022-09-25T19:43:42.638Z,17.90
2022-09-25T19:46:19.338Z,17.90
2022-09-25T19:48:48.772Z,17.90
2022-09-25T19:51:20.221Z,17.90
2022-09-25T19:53:51.024Z,17.80
2022-09-25T19:56:20.694Z,17.70
2022-09-25T19:58:52.930Z,17.60
2022-09-25T20:01:23.349Z,17.50
2022-09-25T20:03:52.115Z,17.50
2022-09-25T20:06:20.274Z,17.50
2022-09-25T20:08:51.423Z,17.60
2022-09-25T20:11:23.623Z,17.80
2022-09-25T20:13:52.579Z,17.90
2022-09-25T20:16:22.379Z,17.90
2022-09-25T20:18:51.709Z,18.00
2022-09-25T20:21:22.142Z,18.10
2022-09-25T20:23:51.685Z,18.10
2022-09-25T20:26:23.026Z,18.10
2022-09-25T20:29:02.723Z,18.10
2022-09-25T20:31:37.315Z,18.00
2022-09-25T20:34:05.548Z,17.90
2022-09-25T20:36:37.825Z,17.70
2022-09-25T20:39:05.492Z,17.60
2022-09-25T20:41:35.151Z,17.50
2022-09-25T20:44:05.127Z,17.70
2022-09-25T20:46:33.097Z,17.80
2022-09-25T20:49:02.369Z,17.80
2022-09-25T20:51:31.209Z,17.80
2022-09-25T20:54:01.263Z,17.80
2022-09-25T20:56:32.744Z,17.90
2022-09-25T20:59:01.381Z,17.80
2022-09-25T21:01:30.725Z,17.40
2022-09-25T21:04:00.813Z,17.20
2022-09-25T21:06:30.980Z,17.20
2022-09-25T21:09:05.130Z,17.20
2022-09-25T21:11:35.608Z,17.20
2022-09-25T21:14:03.867Z,17.20
2022-09-25T21:16:34.446Z,17.20
2022-09-25T21:19:04.768Z,17.20
2022-09-25T21:21:35.028Z,17.10
2022-09-25T21:24:03.184Z,17.20
2022-09-25T21:26:31.954Z,17.20
2022-09-25T21:29:04.275Z,17.20
2022-09-25T21:31:39.108Z,17.40
2022-09-25T21:34:08.733Z,17.50
2022-09-25T21:36:36.387Z,17.40
2022-09-25T21:39:05.376Z,17.50
2022-09-25T21:41:33.944Z,17.50
2022-09-25T21:44:04.163Z,17.40
2022-09-25T21:46:32.458Z,17.50
2022-09-25T21:49:05.173Z,17.30
2022-09-25T21:51:35.639Z,17.10
2022-09-25T21:54:03.274Z,17.00
2022-09-25T21:56:31.843Z,16.90
2022-09-25T21:59:07.115Z,17.20
2022-09-25T22:01:37.487Z,17.40
2022-09-25T22:04:05.917Z,17.40
2022-09-25T22:06:35.033Z,17.50
2022-09-25T22:09:04.215Z,17.40
2022-09-25T22:11:31.663Z,17.20
2022-09-25T22:14:00.247Z,17.10
2022-09-25T22:16:32.172Z,17.00
2022-09-25T22:19:01.166Z,17.00
2022-09-25T22:21:29.887Z,17.00
2022-09-25T22:23:57.790Z,17.10
2022-09-25T22:26:25.734Z,17.30
2022-09-25T22:28:53.296Z,17.30
2022-09-25T22:31:30.677Z,17.10
2022-09-25T22:33:59.324Z,17.10
2022-09-25T22:36:27.519Z,17.10
2022-09-25T22:38:55.228Z,17.10
2022-09-25T22:41:22.773Z,17.20
2022-09-25T22:43:51.780Z,17.40
2022-09-25T22:46:19.736Z,17.50
2022-09-25T22:48:47.306Z,17.40
2022-09-25T22:51:16.375Z,17.40
2022-09-25T22:53:44.279Z,17.40
2022-09-25T22:56:13.571Z,17.50
2022-09-25T22:58:41.529Z,17.50
2022-09-25T23:01:13.477Z,17.50
2022-09-25T23:03:41.052Z,17.50
2022-09-25T23:06:08.655Z,17.40
2022-09-25T23:08:37.215Z,17.40
2022-09-25T23:11:08.109Z,17.30
2022-09-25T23:13:36.780Z,17.30
2022-09-25T23:16:05.970Z,17.20
2022-09-25T23:18:34.619Z,17.00
2022-09-25T23:21:02.070Z,16.90
2022-09-25T23:23:29.582Z,17.00
2022-09-25T23:26:00.704Z,16.90
2022-09-25T23:28:28.158Z,16.80
2022-09-25T23:30:55.942Z,16.80
2022-09-25T23:33:23.575Z,16.80
2022-09-25T23:35:51.105Z,16.70
2022-09-25T23:38:18.621Z,16.70
2022-09-25T23:40:46.177Z,16.90
2022-09-25T23:43:15.423Z,16.80
2022-09-25T23:45:42.903Z,16.90
2022-09-25T23:48:10.585Z,16.90
2022-09-25T23:50:38.106Z,16.80
2022-09-25T23:53:06.163Z,16.90
2022-09-25T23:55:33.703Z,17.10
2022-09-25T23:58:01.512Z,17.00
